Terminal Aerodrome Forecast
Issued by NWS

Home | Current Version | Previous Version | Text Only | Print | Product List | Glossary On
Versions: 1 2 3 4 5 6 7 8 9 10 11 12 13 14
846
FTPA31 PHFO 230542
TAFHJR
TAF
PHJR 230542Z 2306/2406 06007KT P6SM VCSH FEW050
     FM232100 05010G20KT P6SM FEW025 BKN050
     FM240300 04013G25KT P6SM FEW025 BKN040=

USA.gov is the U.S. government's official web portal to all federal, state and local government web resources and services.